createdAt,value
2019-02-20T00:02:12.718Z,7.78
2019-02-20T00:04:45.249Z,8.13
2019-02-20T00:07:21.931Z,9.50
2019-02-20T00:09:57.634Z,6.55
2019-02-20T00:12:34.918Z,7.62
2019-02-20T00:15:12.026Z,8.78
2019-02-20T00:17:40.044Z,9.43
2019-02-20T00:20:15.159Z,5.55
2019-02-20T00:22:50.395Z,10.25
2019-02-20T00:25:24.241Z,8.88
2019-02-20T00:27:58.406Z,12.18
2019-02-20T00:30:33.194Z,6.97
2019-02-20T00:33:05.933Z,8.48
2019-02-20T00:35:40.872Z,10.48
2019-02-20T00:38:14.088Z,9.20
2019-02-20T00:40:47.607Z,10.00
2019-02-20T00:43:21.643Z,8.05
2019-02-20T00:46:17.736Z,11.22
2019-02-20T00:48:57.123Z,6.53
2019-02-20T00:51:34.104Z,11.22
2019-02-20T00:54:09.529Z,9.00
2019-02-20T00:56:45.301Z,7.85
2019-02-20T00:59:17.569Z,7.35
2019-02-20T01:01:53.244Z,9.85
2019-02-20T01:04:27.039Z,11.22
2019-02-20T01:06:59.975Z,9.38
2019-02-20T01:09:36.429Z,6.45
2019-02-20T01:12:08.975Z,13.25
2019-02-20T01:14:44.355Z,7.60
2019-02-20T01:17:17.668Z,9.35
2019-02-20T01:19:57.594Z,9.15
2019-02-20T01:22:30.949Z,5.97
2019-02-20T01:25:14.141Z,7.35
2019-02-20T01:27:47.741Z,9.58
2019-02-20T01:30:24.419Z,7.22
2019-02-20T01:32:57.216Z,14.03
2019-02-20T01:35:33.235Z,9.35
2019-02-20T01:38:08.915Z,10.35
2019-02-20T01:40:43.832Z,11.30
2019-02-20T01:43:18.514Z,7.28
2019-02-20T01:45:52.409Z,10.32
2019-02-20T01:48:26.375Z,10.72
2019-02-20T01:51:03.969Z,6.97
2019-02-20T01:53:38.156Z,14.05
2019-02-20T01:56:11.997Z,7.78
2019-02-20T01:58:46.869Z,8.70
2019-02-20T02:01:22.750Z,8.30
2019-02-20T02:03:58.179Z,8.35
2019-02-20T02:06:34.639Z,8.63
2019-02-20T02:09:07.097Z,6.20
2019-02-20T02:11:45.395Z,8.73
2019-02-20T02:14:21.340Z,6.80
2019-02-20T02:16:55.038Z,13.22
2019-02-20T02:19:29.171Z,9.53
2019-02-20T02:22:04.665Z,8.78
2019-02-20T02:24:39.438Z,9.15
2019-02-20T02:27:12.431Z,9.00
2019-02-20T02:29:53.533Z,9.20
2019-02-20T02:32:25.307Z,10.88
2019-02-20T02:35:00.036Z,10.20
2019-02-20T02:37:37.424Z,11.40
2019-02-20T02:40:11.032Z,7.05
2019-02-20T02:42:43.640Z,8.08
2019-02-20T02:45:17.147Z,6.75
2019-02-20T02:47:56.775Z,9.15
2019-02-20T02:50:29.229Z,8.93
2019-02-20T02:53:07.503Z,11.40
2019-02-20T02:55:41.583Z,7.00
2019-02-20T02:58:16.117Z,7.85
2019-02-20T03:00:48.751Z,8.93
2019-02-20T03:03:22.147Z,10.93
2019-02-20T03:05:55.799Z,10.88
2019-02-20T03:08:33.173Z,9.55
2019-02-20T03:11:09.273Z,10.70
2019-02-20T03:13:42.485Z,10.25
2019-02-20T03:16:18.020Z,11.85
2019-02-20T03:18:52.908Z,13.80
2019-02-20T03:21:26.238Z,9.63
2019-02-20T03:24:03.706Z,9.35
2019-02-20T03:26:37.341Z,8.90
2019-02-20T03:29:12.492Z,11.10
2019-02-20T03:31:45.288Z,8.78
2019-02-20T03:34:21.712Z,7.97
2019-02-20T03:36:56.584Z,11.95
2019-02-20T03:39:30.003Z,11.95
2019-02-20T03:42:02.694Z,13.32
2019-02-20T03:44:36.281Z,9.60
2019-02-20T03:47:10.244Z,10.25
2019-02-20T03:49:44.591Z,9.65
2019-02-20T03:52:20.723Z,7.62
2019-02-20T03:54:56.860Z,8.45
2019-02-20T03:57:31.274Z,7.72
2019-02-20T04:00:05.366Z,10.98
2019-02-20T04:02:40.892Z,10.50
2019-02-20T04:05:13.921Z,10.13
2019-02-20T04:07:48.458Z,13.13
2019-02-20T04:10:20.726Z,12.78
2019-02-20T04:12:55.797Z,11.12
2019-02-20T04:15:30.137Z,9.68
2019-02-20T04:18:06.016Z,9.25
2019-02-20T04:20:39.157Z,10.20
2019-02-20T04:23:13.853Z,12.35
2019-02-20T04:25:46.001Z,11.60
2019-02-20T04:28:19.649Z,12.18
2019-02-20T04:30:53.646Z,10.00
2019-02-20T04:33:25.428Z,10.35
2019-02-20T04:36:00.230Z,10.68
2019-02-20T04:38:33.723Z,11.88
2019-02-20T04:41:05.158Z,10.50
2019-02-20T04:43:37.766Z,11.45
2019-02-20T04:46:15.134Z,12.40
2019-02-20T04:48:48.522Z,14.25
2019-02-20T04:51:21.691Z,17.45
2019-02-20T04:53:54.624Z,12.00
2019-02-20T04:56:28.203Z,9.58
2019-02-20T04:59:03.345Z,9.98
2019-02-20T05:01:36.654Z,10.65
2019-02-20T05:04:10.433Z,10.48
2019-02-20T05:06:44.642Z,11.50
2019-02-20T05:09:20.645Z,11.03
2019-02-20T05:11:53.641Z,10.63
2019-02-20T05:14:27.540Z,10.93
2019-02-20T05:16:59.228Z,7.47
2019-02-20T05:19:32.993Z,12.75
2019-02-20T05:22:06.641Z,12.45
2019-02-20T05:24:43.331Z,10.43
2019-02-20T05:27:25.885Z,10.68
2019-02-20T05:30:01.794Z,13.78
2019-02-20T05:32:37.482Z,14.75
2019-02-20T05:35:10.635Z,14.98
2019-02-20T05:37:44.758Z,12.00
2019-02-20T05:40:17.076Z,12.05
2019-02-20T05:42:50.301Z,12.05
2019-02-20T05:45:23.427Z,13.00
2019-02-20T05:50:44.797Z,14.47
2019-02-20T05:53:18.654Z,14.07
2019-02-20T05:55:50.843Z,11.78
2019-02-20T05:58:24.049Z,16.07
2019-02-20T06:00:55.694Z,17.07
2019-02-20T06:03:26.098Z,15.85
2019-02-20T06:06:00.016Z,14.95
2019-02-20T06:08:31.702Z,16.75
2019-02-20T06:11:12.198Z,15.10
2019-02-20T06:13:36.187Z,17.73
2019-02-20T06:16:13.810Z,21.27
2019-02-20T06:18:50.472Z,15.72
2019-02-20T06:21:24.851Z,20.17
2019-02-20T06:23:59.468Z,18.10
2019-02-20T06:26:34.347Z,19.70
2019-02-20T06:29:06.581Z,18.25
2019-02-20T06:31:40.665Z,17.85
2019-02-20T06:34:12.430Z,18.95
2019-02-20T06:36:43.899Z,21.75
2019-02-20T06:39:15.449Z,19.40
2019-02-20T06:41:44.334Z,17.67
2019-02-20T06:44:15.054Z,22.07
2019-02-20T06:46:45.959Z,24.60
2019-02-20T06:49:17.942Z,21.02
2019-02-20T06:51:49.550Z,20.15
2019-02-20T06:54:21.388Z,21.10
2019-02-20T06:56:52.399Z,19.82
2019-02-20T06:59:22.297Z,23.20
2019-02-20T07:01:59.380Z,24.50
2019-02-20T07:04:31.336Z,21.85
2019-02-20T07:07:08.597Z,22.73
2019-02-20T07:09:50.102Z,22.75
2019-02-20T07:12:40.395Z,22.37
2019-02-20T07:15:48.163Z,21.55
2019-02-20T07:18:29.974Z,20.43
2019-02-20T07:21:13.789Z,25.85
2019-02-20T07:24:15.506Z,25.20
2019-02-20T07:27:04.521Z,24.30
2019-02-20T07:29:46.474Z,22.75
2019-02-20T07:32:18.562Z,29.35
2019-02-20T07:34:52.933Z,29.48
2019-02-20T07:37:23.230Z,28.40
2019-02-20T07:39:57.453Z,31.62
2019-02-20T07:42:30.301Z,33.53
2019-02-20T07:45:12.739Z,28.73
2019-02-20T07:47:44.494Z,24.67
2019-02-20T07:50:25.686Z,34.48
2019-02-20T07:52:55.320Z,31.20
2019-02-20T07:55:27.985Z,29.35
2019-02-20T07:57:57.975Z,27.65
2019-02-20T08:00:27.635Z,32.90
2019-02-20T08:03:03.092Z,30.27
2019-02-20T08:05:37.588Z,33.40
2019-02-20T08:08:10.513Z,30.63
2019-02-20T08:10:50.389Z,34.80
2019-02-20T08:13:25.041Z,33.47
2019-02-20T08:15:59.859Z,30.73
2019-02-20T08:18:36.660Z,32.63
2019-02-20T08:21:06.629Z,30.80
2019-02-20T08:23:37.404Z,39.00
2019-02-20T08:26:16.839Z,29.47
2019-02-20T08:28:40.767Z,34.23
2019-02-20T08:31:11.206Z,27.80
2019-02-20T08:33:48.723Z,28.53
2019-02-20T08:36:18.103Z,24.70
2019-02-20T08:38:48.962Z,32.47
2019-02-20T08:41:21.577Z,32.67
2019-02-20T08:43:56.246Z,32.60
2019-02-20T08:46:29.341Z,28.80
2019-02-20T08:49:03.221Z,35.03
2019-02-20T08:51:32.404Z,30.20
2019-02-20T08:54:08.865Z,28.90
2019-02-20T08:56:41.052Z,32.40
2019-02-20T08:59:13.691Z,32.80
2019-02-20T09:01:45.841Z,30.63
2019-02-20T09:04:15.819Z,32.07
2019-02-20T09:06:47.348Z,26.20
2019-02-20T09:09:16.942Z,25.83
2019-02-20T09:11:46.563Z,26.53
2019-02-20T09:14:15.278Z,19.93
2019-02-20T09:16:44.015Z,20.50
2019-02-20T09:19:18.379Z,23.23
2019-02-20T09:21:52.052Z,20.57
2019-02-20T09:24:25.316Z,22.70
2019-02-20T09:27:02.245Z,17.87
2019-02-20T09:29:33.488Z,19.17
2019-02-20T09:32:04.055Z,19.40
2019-02-20T09:34:38.786Z,21.07
2019-02-20T09:37:08.720Z,19.57
2019-02-20T09:39:48.726Z,21.20
2019-02-20T09:42:20.705Z,21.37
2019-02-20T09:44:57.547Z,23.03
2019-02-20T09:47:30.762Z,20.87
2019-02-20T09:50:04.416Z,24.03
2019-02-20T09:52:38.284Z,16.90
2019-02-20T09:55:16.715Z,19.70
2019-02-20T09:57:59.108Z,18.93
2019-02-20T10:00:20.366Z,17.13
2019-02-20T10:02:53.828Z,21.67
2019-02-20T10:05:28.115Z,17.97
2019-02-20T10:08:07.095Z,18.53
2019-02-20T10:10:39.639Z,16.57
2019-02-20T10:13:12.381Z,14.70
2019-02-20T10:15:45.510Z,16.00
2019-02-20T10:18:16.878Z,15.27
2019-02-20T10:20:46.227Z,14.83
2019-02-20T10:23:26.075Z,13.97
2019-02-20T10:26:00.922Z,13.83
2019-02-20T10:28:30.352Z,15.80
2019-02-20T10:31:07.547Z,15.17
2019-02-20T10:33:40.443Z,14.90
2019-02-20T10:36:15.710Z,18.63
2019-02-20T10:38:51.468Z,15.93
2019-02-20T10:41:23.461Z,14.90
2019-02-20T10:44:04.839Z,17.47
2019-02-20T10:46:34.769Z,13.83
2019-02-20T10:49:06.880Z,16.97
2019-02-20T10:51:38.227Z,14.47
2019-02-20T10:54:13.236Z,12.40
2019-02-20T10:56:45.669Z,13.33
2019-02-20T10:59:17.532Z,14.80
2019-02-20T11:01:47.437Z,21.00
2019-02-20T11:04:20.316Z,14.87
2019-02-20T11:13:26.298Z,9.67
2019-02-20T11:15:58.923Z,13.97
2019-02-20T11:18:42.899Z,9.70
2019-02-20T11:21:23.087Z,10.13
2019-02-20T11:23:54.105Z,10.27
2019-02-20T11:26:25.268Z,9.83
2019-02-20T11:29:20.186Z,11.23
2019-02-20T11:31:57.867Z,9.07
2019-02-20T11:34:36.002Z,11.13
2019-02-20T11:37:01.887Z,11.33
2019-02-20T11:39:37.689Z,12.60
2019-02-20T11:42:07.061Z,8.43
2019-02-20T11:44:39.279Z,9.13
2019-02-20T11:47:09.218Z,7.33
2019-02-20T11:49:42.521Z,6.87
2019-02-20T11:52:47.751Z,7.37
2019-02-20T11:55:26.608Z,7.20
2019-02-20T11:58:13.600Z,7.83
2019-02-20T12:00:45.699Z,8.13
2019-02-20T12:03:42.206Z,10.67
2019-02-20T12:06:13.207Z,6.60
2019-02-20T12:08:47.375Z,8.27
2019-02-20T12:11:18.044Z,7.87
2019-02-20T12:13:47.295Z,8.33
2019-02-20T12:16:19.773Z,7.63
2019-02-20T12:18:53.181Z,7.53
2019-02-20T12:21:22.689Z,7.70
2019-02-20T12:24:17.071Z,8.23
2019-02-20T12:26:49.412Z,8.43
2019-02-20T12:29:56.118Z,6.93
2019-02-20T12:32:27.977Z,9.70
2019-02-20T12:35:34.173Z,13.57
2019-02-20T12:38:03.196Z,9.90
2019-02-20T12:40:59.003Z,9.90
2019-02-20T12:43:28.021Z,8.73
2019-02-20T12:46:31.480Z,8.70
2019-02-20T12:49:03.494Z,10.57
2019-02-20T12:52:16.823Z,9.37
2019-02-20T12:54:50.599Z,11.70
2019-02-20T13:11:03.003Z,8.17
2019-02-20T13:13:38.116Z,11.30
2019-02-20T13:19:42.530Z,11.00
2019-02-20T13:23:00.274Z,10.93
2019-02-20T13:25:29.628Z,9.77
2019-02-20T13:27:59.537Z,8.63
2019-02-20T13:30:38.099Z,8.63
2019-02-20T13:33:09.531Z,9.87
2019-02-20T13:36:30.406Z,11.97
2019-02-20T13:39:01.130Z,8.77
2019-02-20T13:42:05.285Z,12.60
2019-02-20T13:44:36.481Z,11.23
2019-02-20T13:47:58.119Z,9.97
2019-02-20T13:50:29.176Z,8.77
2019-02-20T13:53:36.399Z,8.30
2019-02-20T13:56:08.105Z,10.37
2019-02-20T13:59:16.338Z,11.30
2019-02-20T14:01:55.989Z,9.43
2019-02-20T14:05:12.398Z,8.57
2019-02-20T14:07:48.375Z,10.97
2019-02-20T14:17:13.280Z,11.57
2019-02-20T14:19:48.988Z,9.80
2019-02-20T14:22:43.683Z,11.70
2019-02-20T14:25:27.289Z,10.93
2019-02-20T14:28:25.171Z,10.60
2019-02-20T14:33:44.259Z,10.43
2019-02-20T14:36:26.071Z,10.23
2019-02-20T14:39:09.428Z,8.47
2019-02-20T14:41:45.438Z,8.73
2019-02-20T14:47:32.799Z,11.83
2019-02-20T14:50:49.820Z,10.80
2019-02-20T14:53:30.720Z,10.73
2019-02-20T14:56:05.192Z,13.60
2019-02-20T14:58:38.077Z,13.10
2019-02-20T15:01:10.105Z,12.60
2019-02-20T15:03:56.801Z,10.20
2019-02-20T15:06:29.359Z,8.80
2019-02-20T15:09:37.043Z,9.90
2019-02-20T15:12:15.238Z,12.37
2019-02-20T15:15:26.111Z,12.23
2019-02-20T15:18:02.551Z,9.23
2019-02-20T15:29:41.114Z,9.40
2019-02-20T15:32:17.134Z,8.57
2019-02-20T15:34:47.168Z,7.13
2019-02-20T15:44:10.677Z,10.87
2019-02-20T15:46:47.403Z,12.67
2019-02-20T15:49:16.754Z,12.07
2019-02-20T15:51:48.460Z,10.47
2019-02-20T15:54:21.522Z,11.93
2019-02-20T15:57:00.084Z,9.27
2019-02-20T15:59:44.649Z,10.60
2019-02-20T16:02:21.837Z,9.10
2019-02-20T16:05:00.652Z,7.90
2019-02-20T16:07:41.477Z,11.03
2019-02-20T16:10:49.940Z,6.90
2019-02-20T16:13:23.624Z,6.40
2019-02-20T16:16:02.040Z,8.70
2019-02-20T16:18:31.345Z,6.60
2019-02-20T16:21:12.876Z,8.97
2019-02-20T16:23:47.815Z,7.53
2019-02-20T16:27:05.726Z,11.30
2019-02-20T16:29:44.466Z,12.60
2019-02-20T16:32:22.134Z,8.40
2019-02-20T16:34:55.644Z,8.40
2019-02-20T16:38:03.213Z,14.10
2019-02-20T16:40:35.399Z,12.00
2019-02-20T16:43:55.599Z,10.90
2019-02-20T16:46:33.050Z,8.23
2019-02-20T16:49:47.758Z,12.33
2019-02-20T16:52:23.416Z,8.43
2019-02-20T16:55:39.776Z,11.40
2019-02-20T16:58:13.528Z,10.40
2019-02-20T17:04:00.091Z,8.70
2019-02-20T17:06:51.095Z,9.87
2019-02-20T17:11:54.805Z,9.77
2019-02-20T17:15:09.386Z,11.03
2019-02-20T17:17:44.556Z,10.53
2019-02-20T17:20:46.670Z,11.77
2019-02-20T17:23:20.440Z,12.80
2019-02-20T17:33:04.128Z,9.17
2019-02-20T17:35:43.091Z,10.80
2019-02-20T17:39:07.354Z,13.47
2019-02-20T17:41:48.392Z,17.23
2019-02-20T17:44:47.612Z,17.93
2019-02-20T17:50:35.941Z,10.53
2019-02-20T17:53:19.351Z,14.87
2019-02-20T17:59:03.732Z,12.13
2019-02-20T18:04:46.107Z,9.93
2019-02-20T18:07:53.281Z,9.13
2019-02-20T18:10:34.645Z,12.17
2019-02-20T18:13:44.200Z,10.03
2019-02-20T18:16:17.392Z,12.63
2019-02-20T18:19:08.823Z,9.23
2019-02-20T18:21:44.273Z,9.07
2019-02-20T18:24:37.212Z,12.23
2019-02-20T18:27:09.905Z,8.67
2019-02-20T18:30:12.794Z,8.57
2019-02-20T18:32:38.903Z,9.50
2019-02-20T18:35:50.642Z,7.30
2019-02-20T18:38:26.510Z,8.23
2019-02-20T18:41:36.262Z,7.53
2019-02-20T18:44:11.937Z,10.40
2019-02-20T18:46:46.762Z,11.20
2019-02-20T18:49:21.258Z,10.37
2019-02-20T18:51:53.404Z,14.37
2019-02-20T18:54:37.519Z,14.53
2019-02-20T18:57:23.097Z,11.10
2019-02-20T19:00:16.007Z,10.30
2019-02-20T19:02:53.101Z,17.87
2019-02-20T19:05:33.646Z,13.50
2019-02-20T19:08:26.651Z,13.87
2019-02-20T19:11:07.667Z,11.60
2019-02-20T19:13:57.348Z,13.73
2019-02-20T19:16:53.154Z,12.67
2019-02-20T19:19:45.173Z,10.73
2019-02-20T19:22:44.281Z,12.27
2019-02-20T19:25:45.891Z,12.90
2019-02-20T19:28:44.099Z,12.60
2019-02-20T19:31:21.808Z,29.37
2019-02-20T19:40:52.307Z,12.07
2019-02-20T19:43:35.737Z,15.20
2019-02-20T19:46:11.751Z,11.10
2019-02-20T19:49:07.996Z,12.70
2019-02-20T19:51:48.903Z,14.00
2019-02-20T19:54:33.009Z,12.10
2019-02-20T19:57:20.104Z,14.83
2019-02-20T20:00:32.700Z,16.87
2019-02-20T20:03:13.724Z,13.03
2019-02-20T20:06:37.163Z,12.97
2019-02-20T20:09:44.718Z,14.83
2019-02-20T20:13:07.567Z,14.00
2019-02-20T20:16:11.172Z,10.43
2019-02-20T20:19:15.099Z,14.57
2019-02-20T20:22:14.313Z,12.63
2019-02-20T20:25:34.244Z,15.43
2019-02-20T20:28:23.606Z,13.40
2019-02-20T20:34:26.367Z,15.03
2019-02-20T20:37:24.896Z,14.33
2019-02-20T20:40:08.200Z,20.80
2019-02-20T20:43:20.265Z,14.28
2019-02-20T20:46:16.144Z,16.30
2019-02-20T20:49:17.694Z,14.47
2019-02-20T20:52:10.348Z,18.43
2019-02-20T20:55:15.101Z,19.90
2019-02-20T20:57:58.115Z,18.93
2019-02-20T21:01:00.524Z,19.13
2019-02-20T21:03:43.518Z,17.92
2019-02-20T21:07:04.130Z,17.83
2019-02-20T21:09:53.913Z,15.67
2019-02-20T21:13:00.224Z,18.33
2019-02-20T21:15:47.156Z,13.67
2019-02-20T21:18:43.221Z,13.23
2019-02-20T21:21:42.477Z,19.37
2019-02-20T21:24:52.298Z,16.63
2019-02-20T21:27:53.586Z,16.03
2019-02-20T21:30:46.306Z,15.15
2019-02-20T21:33:35.263Z,21.17
2019-02-20T21:36:49.368Z,14.57
2019-02-20T21:39:41.512Z,15.95
2019-02-20T21:42:43.872Z,16.05
2019-02-20T21:45:35.237Z,14.77
2019-02-20T21:48:25.033Z,17.12
2019-02-20T21:51:38.410Z,17.12
2019-02-20T21:54:18.101Z,15.50
2019-02-20T21:56:55.958Z,18.10
2019-02-20T21:59:48.229Z,18.67
2019-02-20T22:02:22.325Z,20.85
2019-02-20T22:05:12.293Z,17.98
2019-02-20T22:08:08.743Z,19.52
2019-02-20T22:11:16.592Z,19.32
2019-02-20T22:14:22.293Z,15.60
2019-02-20T22:17:11.812Z,19.00
2019-02-20T22:20:01.223Z,15.53
2019-02-20T22:22:54.642Z,14.75
2019-02-20T22:25:37.735Z,14.93
2019-02-20T22:28:49.150Z,16.52
2019-02-20T22:31:45.773Z,18.10
2019-02-20T22:34:32.832Z,17.00
2019-02-20T22:37:22.601Z,16.10
2019-02-20T22:40:13.535Z,17.98
2019-02-20T22:42:53.861Z,18.52
2019-02-20T22:46:02.471Z,18.40
2019-02-20T22:48:56.378Z,15.60
2019-02-20T22:51:56.261Z,15.18
2019-02-20T22:54:43.659Z,15.78
2019-02-20T22:57:33.647Z,15.90
2019-02-20T23:00:34.289Z,18.32
2019-02-20T23:03:45.592Z,18.10
2019-02-20T23:06:28.997Z,18.32
2019-02-20T23:09:55.200Z,18.95
2019-02-20T23:12:43.113Z,18.02
2019-02-20T23:15:53.342Z,14.38
2019-02-20T23:18:26.741Z,16.90
2019-02-20T23:21:02.697Z,14.87
2019-02-20T23:23:35.971Z,13.55
2019-02-20T23:26:10.131Z,13.00
2019-02-20T23:29:09.207Z,16.57
2019-02-20T23:31:42.455Z,13.78
2019-02-20T23:34:52.069Z,16.80
2019-02-20T23:37:24.524Z,16.87
2019-02-20T23:40:04.657Z,16.57
2019-02-20T23:42:42.474Z,14.45
2019-02-20T23:45:15.488Z,10.43
2019-02-20T23:47:49.231Z,15.85
2019-02-20T23:50:21.985Z,14.63
2019-02-20T23:52:55.220Z,15.08
2019-02-20T23:55:28.566Z,13.83
2019-02-20T23:58:03.326Z,17.42
